Time;durP1;ratioP1;P1;durP2;ratioP2;P2;SDS_P1;SDS_P2;PMS_P1;PMS_P2;Temp;Humidity;BMP_temperature;BMP_pressure;BME280_temperature;BME280_humidity;BME280_pressure;Samples;Min_cycle;Max_cycle;Signal;HPM_P1;HPM_P2
2021/07/31 00:01:28;;;;;;;6.07;2.90;;;20.00;1.00;;;;;;5077520;28;20574;-75
2021/07/31 00:04:17;;;;;;;6.07;2.70;;;20.00;1.00;;;;;;5075706;28;20062;-74
2021/07/31 00:07:05;;;;;;;3.92;2.95;;;20.00;1.00;;;;;;5079211;28;20041;-74
2021/07/31 00:09:54;;;;;;;4.13;2.75;;;20.00;1.00;;;;;;5085298;28;20060;-75
2021/07/31 00:12:42;;;;;;;4.03;2.40;;;19.90;1.00;;;;;;5079808;28;20194;-75
2021/07/31 00:15:32;;;;;;;3.67;3.13;;;20.00;1.00;;;;;;5080992;28;20083;-75
2021/07/31 00:18:20;;;;;;;2.75;2.42;;;20.00;1.00;;;;;;5062554;28;20045;-75
2021/07/31 00:21:09;;;;;;;3.55;2.55;;;19.90;1.00;;;;;;5079675;28;20048;-74
2021/07/31 00:23:57;;;;;;;4.25;3.03;;;19.80;1.00;;;;;;5081737;28;20147;-74
2021/07/31 00:26:46;;;;;;;4.07;2.65;;;19.80;1.00;;;;;;5081860;28;20048;-74
2021/07/31 00:29:34;;;;;;;3.92;2.42;;;19.80;1.00;;;;;;5077537;28;20055;-74
2021/07/31 00:32:24;;;;;;;2.85;2.28;;;19.80;1.00;;;;;;5072914;28;20051;-74
2021/07/31 00:35:12;;;;;;;6.95;2.47;;;19.90;1.00;;;;;;5076828;28;20074;-74
2021/07/31 00:38:01;;;;;;;3.35;2.13;;;19.90;1.00;;;;;;5069167;28;20100;-74
2021/07/31 00:40:49;;;;;;;5.45;1.77;;;19.90;1.00;;;;;;5076819;28;20052;-74
2021/07/31 00:43:41;;;;;;;6.55;2.13;;;19.90;1.00;;;;;;5061241;28;20316;-75
2021/07/31 00:46:30;;;;;;;3.90;2.10;;;19.90;1.00;;;;;;5077708;28;20507;-75
2021/07/31 00:49:20;;;;;;;3.05;1.85;;;19.80;1.00;;;;;;5049159;28;20177;-74
2021/07/31 00:52:09;;;;;;;3.22;2.05;;;19.70;1.00;;;;;;5084240;28;20368;-74
2021/07/31 00:55:02;;;;;;;3.15;1.95;;;19.70;1.00;;;;;;5063181;28;20062;-74
2021/07/31 00:57:57;;;;;;;5.82;2.20;;;19.60;1.00;;;;;;5061441;28;20054;-74
2021/07/31 01:01:06;;;;;;;5.07;1.95;;;19.50;1.00;;;;;;5066201;28;20059;-74
2021/07/31 01:03:55;;;;;;;2.03;1.80;;;19.50;1.00;;;;;;5069724;28;20052;-73
2021/07/31 01:06:45;;;;;;;4.68;1.90;;;19.40;1.00;;;;;;5067001;28;20521;-74
2021/07/31 01:09:33;;;;;;;4.60;1.90;;;19.40;1.00;;;;;;5079037;28;20629;-75
2021/07/31 01:12:22;;;;;;;7.88;2.10;;;19.40;1.00;;;;;;5062227;28;20100;-75
2021/07/31 01:15:12;;;;;;;6.22;2.00;;;19.40;1.00;;;;;;5078636;28;20809;-75
2021/07/31 01:18:00;;;;;;;6.95;2.10;;;19.40;1.00;;;;;;5079619;28;20040;-75
2021/07/31 01:20:49;;;;;;;3.38;1.95;;;19.50;1.00;;;;;;5078056;28;20106;-73
2021/07/31 01:23:40;;;;;;;5.85;2.08;;;19.50;1.00;;;;;;5062825;28;20059;-74
2021/07/31 01:26:29;;;;;;;2.85;2.38;;;19.40;1.00;;;;;;5062585;28;20057;-74
2021/07/31 01:29:22;;;;;;;3.38;1.80;;;19.50;1.00;;;;;;5064725;28;20048;-75
2021/07/31 01:32:11;;;;;;;3.55;2.10;;;19.40;1.00;;;;;;5081295;28;20056;-74
2021/07/31 01:35:01;;;;;;;8.57;1.67;;;19.50;1.00;;;;;;5066616;28;20111;-74
2021/07/31 01:37:52;;;;;;;3.25;1.70;;;19.40;1.00;;;;;;5051450;28;20051;-75
2021/07/31 01:40:42;;;;;;;6.05;1.83;;;19.30;1.00;;;;;;5077105;28;20161;-75
2021/07/31 01:43:31;;;;;;;3.53;1.75;;;19.20;1.00;;;;;;5065409;28;20411;-75
2021/07/31 01:46:20;;;;;;;7.85;1.55;;;19.20;1.00;;;;;;5066933;28;20045;-74
2021/07/31 01:49:09;;;;;;;5.13;1.85;;;19.30;1.00;;;;;;5063510;28;20129;-74
2021/07/31 01:52:04;;;;;;;6.75;1.90;;;19.30;1.00;;;;;;5047612;28;20104;-74
2021/07/31 01:54:53;;;;;;;2.03;1.27;;;19.40;1.00;;;;;;5060722;28;20105;-74
2021/07/31 01:57:43;;;;;;;3.53;1.20;;;19.30;1.00;;;;;;5067688;28;20158;-74
2021/07/31 02:00:37;;;;;;;4.25;1.63;;;19.30;1.00;;;;;;5084452;28;20518;-75
2021/07/31 02:03:46;;;;;;;2.80;1.40;;;19.30;1.00;;;;;;5068813;28;20506;-75
2021/07/31 02:06:50;;;;;;;4.55;1.52;;;19.20;1.00;;;;;;5081394;28;20066;-74
2021/07/31 02:09:38;;;;;;;4.13;1.40;;;19.10;1.00;;;;;;5065636;28;20412;-75
2021/07/31 02:12:27;;;;;;;1.80;1.15;;;19.00;1.00;;;;;;5069904;28;20048;-74
2021/07/31 02:15:18;;;;;;;3.03;1.60;;;19.00;1.00;;;;;;5079338;28;20109;-74
2021/07/31 02:18:12;;;;;;;3.75;1.27;;;18.80;1.00;;;;;;5065428;28;20059;-73
2021/07/31 02:21:00;;;;;;;3.92;1.60;;;18.80;1.00;;;;;;5080755;28;20042;-74
2021/07/31 02:23:55;;;;;;;3.33;1.48;;;18.80;1.00;;;;;;5081322;28;20059;-75
2021/07/31 02:27:07;;;;;;;5.80;1.50;;;18.70;1.00;;;;;;5085901;28;20045;-75
2021/07/31 02:30:12;;;;;;;3.17;1.42;;;18.60;1.00;;;;;;5069548;28;20040;-74
2021/07/31 02:33:03;;;;;;;6.18;1.60;;;18.60;1.00;;;;;;5066450;28;20193;-75
2021/07/31 02:35:52;;;;;;;4.32;1.33;;;18.50;1.00;;;;;;5077792;28;20081;-74
2021/07/31 02:38:54;;;;;;;2.80;1.55;;;18.30;1.00;;;;;;5064141;28;20058;-74
2021/07/31 02:41:43;;;;;;;5.68;1.42;;;18.20;1.00;;;;;;5071370;28;20418;-75
2021/07/31 02:44:32;;;;;;;3.28;1.38;;;18.10;1.00;;;;;;5081386;28;20550;-74
2021/07/31 02:47:25;;;;;;;4.05;1.50;;;18.10;1.00;;;;;;5065099;28;20445;-74
2021/07/31 02:50:15;;;;;;;4.43;1.30;;;18.10;1.00;;;;;;5077887;28;20109;-75
2021/07/31 02:53:21;;;;;;;5.68;1.50;;;18.10;1.00;;;;;;5065055;28;20060;-75
2021/07/31 02:56:10;;;;;;;3.42;1.73;;;18.10;1.00;;;;;;5073431;28;20525;-75
2021/07/31 02:58:59;;;;;;;3.42;1.30;;;18.10;1.00;;;;;;5081543;28;20052;-75
2021/07/31 03:01:48;;;;;;;3.15;1.40;;;18.00;1.00;;;;;;5068226;28;20135;-75
2021/07/31 03:04:39;;;;;;;4.93;1.25;;;18.00;1.00;;;;;;5077298;28;20060;-74
2021/07/31 03:07:39;;;;;;;3.90;1.42;;;17.90;1.00;;;;;;5080181;28;20423;-74
2021/07/31 03:10:28;;;;;;;5.20;1.40;;;17.80;1.00;;;;;;5070452;28;20043;-75
2021/07/31 03:13:16;;;;;;;5.43;1.63;;;17.80;1.00;;;;;;5082474;28;20048;-74
2021/07/31 03:16:06;;;;;;;6.25;1.40;;;17.80;1.00;;;;;;5066345;28;20495;-75
2021/07/31 03:18:57;;;;;;;4.40;1.42;;;17.80;1.00;;;;;;5064875;28;20062;-74
2021/07/31 03:21:45;;;;;;;2.95;1.50;;;17.70;1.00;;;;;;5071004;28;20209;-75
2021/07/31 03:24:41;;;;;;;4.57;1.58;;;17.70;1.00;;;;;;5067963;28;20124;-74
2021/07/31 03:27:29;;;;;;;5.80;1.67;;;17.70;1.00;;;;;;5064851;28;20044;-73
2021/07/31 03:30:40;;;;;;;2.92;1.38;;;17.60;1.00;;;;;;5064480;28;20407;-75
2021/07/31 03:33:32;;;;;;;5.25;1.50;;;17.50;1.00;;;;;;5062768;28;20574;-75
2021/07/31 03:36:21;;;;;;;4.20;1.63;;;17.40;1.00;;;;;;5068956;28;20052;-74
2021/07/31 03:39:23;;;;;;;4.85;1.40;;;17.40;1.00;;;;;;5070880;28;20146;-72
2021/07/31 03:42:13;;;;;;;2.05;1.30;;;17.40;1.00;;;;;;5077634;28;20109;-73
2021/07/31 03:45:05;;;;;;;3.38;1.30;;;17.40;1.00;;;;;;5066745;28;20040;-73
2021/07/31 03:47:54;;;;;;;4.05;1.13;;;17.40;1.00;;;;;;5065480;28;20047;-73
2021/07/31 03:50:42;;;;;;;6.78;1.95;;;17.40;1.00;;;;;;5084040;28;20198;-75
2021/07/31 03:53:33;;;;;;;4.13;1.48;;;17.40;1.00;;;;;;5064712;28;20052;-73
2021/07/31 03:56:23;;;;;;;4.60;1.52;;;17.30;1.00;;;;;;5078071;28;20046;-74
2021/07/31 03:59:17;;;;;;;5.90;1.55;;;17.40;1.00;;;;;;5062741;28;20119;-74
2021/07/31 04:02:07;;;;;;;11.52;1.95;;;17.40;1.00;;;;;;5077792;28;20507;-74
2021/07/31 04:04:58;;;;;;;8.15;1.48;;;17.30;1.00;;;;;;5069961;28;20055;-74
2021/07/31 04:07:47;;;;;;;3.67;1.38;;;17.30;1.00;;;;;;5067239;28;20062;-74
2021/07/31 04:11:05;;;;;;;5.63;1.50;;;17.40;1.00;;;;;;5076917;28;20541;-74
2021/07/31 04:14:20;;;;;;;3.67;2.20;;;17.40;1.00;;;;;;5057784;28;20436;-73
2021/07/31 04:17:16;;;;;;;4.50;1.35;;;17.50;1.00;;;;;;5060301;28;20503;-73
2021/07/31 04:20:07;;;;;;;3.75;1.40;;;17.90;1.00;;;;;;5064439;28;20442;-74
2021/07/31 04:22:56;;;;;;;5.55;1.70;;;18.50;1.00;;;;;;5064780;28;20051;-73
2021/07/31 04:25:53;;;;;;;6.88;1.80;;;19.10;1.00;;;;;;5067101;28;20044;-73
2021/07/31 04:28:41;;;;;;;4.95;1.50;;;19.40;1.00;;;;;;5077088;28;20127;-74
2021/07/31 04:31:31;;;;;;;4.45;1.63;;;19.90;1.00;;;;;;5073810;28;20060;-75
2021/07/31 04:34:20;;;;;;;2.67;1.33;;;19.90;1.00;;;;;;5061831;28;20044;-73
2021/07/31 04:37:08;;;;;;;7.80;1.15;;;20.30;1.00;;;;;;5083324;28;20085;-73
2021/07/31 04:39:56;;;;;;;3.72;1.40;;;20.20;1.00;;;;;;5075875;28;20040;-73
2021/07/31 04:42:46;;;;;;;1.88;1.23;;;20.70;1.00;;;;;;5074623;28;20051;-74
2021/07/31 04:45:34;;;;;;;4.25;1.20;;;20.90;1.00;;;;;;5078293;28;20051;-74
2021/07/31 04:48:24;;;;;;;2.58;1.23;;;21.50;1.00;;;;;;5079375;28;20078;-74
2021/07/31 04:51:12;;;;;;;6.65;1.85;;;21.50;1.00;;;;;;5068782;28;20185;-74
2021/07/31 04:54:00;;;;;;;6.05;1.48;;;21.40;1.00;;;;;;5075764;28;20052;-74
2021/07/31 04:56:49;;;;;;;3.25;1.10;;;22.00;1.00;;;;;;5075961;28;20056;-74
2021/07/31 04:59:39;;;;;;;6.10;1.50;;;22.80;1.00;;;;;;5064889;28;20067;-73
2021/07/31 05:02:31;;;;;;;3.55;1.30;;;22.50;1.00;;;;;;5082780;28;20044;-73
2021/07/31 05:05:21;;;;;;;5.95;1.60;;;22.60;1.00;;;;;;5075557;28;20044;-73
2021/07/31 05:08:09;;;;;;;3.63;1.27;;;22.40;1.00;;;;;;5076620;28;20402;-74
2021/07/31 05:10:58;;;;;;;4.35;1.27;;;22.60;1.00;;;;;;5076300;28;20048;-74
2021/07/31 05:13:46;;;;;;;4.07;1.83;;;22.90;1.00;;;;;;5080567;28;20055;-75
2021/07/31 05:16:35;;;;;;;4.03;1.60;;;22.50;1.00;;;;;;5078489;28;20070;-75
2021/07/31 05:19:23;;;;;;;6.10;1.10;;;22.80;1.00;;;;;;5078602;28;20506;-76
2021/07/31 05:22:13;;;;;;;3.13;1.20;;;22.60;1.00;;;;;;5076781;28;20139;-75
2021/07/31 05:25:03;;;;;;;3.00;1.20;;;23.10;1.00;;;;;;5062911;28;20058;-75
2021/07/31 05:27:51;;;;;;;3.65;1.30;;;23.20;1.00;;;;;;5066884;28;20244;-74
2021/07/31 05:30:40;;;;;;;6.70;1.55;;;23.50;1.00;;;;;;5079680;28;20122;-75
2021/07/31 05:33:28;;;;;;;8.57;1.58;;;22.80;1.00;;;;;;5073945;28;20055;-74
2021/07/31 05:36:17;;;;;;;6.75;1.35;;;23.40;1.00;;;;;;5077181;28;20048;-74
2021/07/31 05:39:07;;;;;;;4.85;1.25;;;23.90;1.00;;;;;;5076402;28;20138;-74
2021/07/31 05:41:55;;;;;;;3.63;1.50;;;23.40;1.00;;;;;;5081362;28;21443;-74
2021/07/31 05:44:43;;;;;;;4.13;1.35;;;23.90;1.00;;;;;;5078986;28;20123;-75
2021/07/31 05:47:32;;;;;;;5.50;1.42;;;23.50;1.00;;;;;;5077045;28;20056;-75
2021/07/31 05:50:22;;;;;;;6.32;1.40;;;23.90;1.00;;;;;;5064831;28;20527;-75
2021/07/31 05:53:10;;;;;;;5.47;1.30;;;23.60;1.00;;;;;;5078266;28;20052;-74
2021/07/31 05:56:00;;;;;;;6.00;1.73;;;24.00;1.00;;;;;;5079383;28;20044;-75
2021/07/31 05:58:49;;;;;;;4.00;1.30;;;23.70;1.00;;;;;;5075377;28;20040;-75
2021/07/31 06:01:37;;;;;;;5.22;1.60;;;22.20;1.00;;;;;;5063736;28;20132;-75
2021/07/31 06:04:26;;;;;;;3.40;1.40;;;21.00;1.00;;;;;;5070567;28;20067;-75
2021/07/31 06:07:15;;;;;;;3.10;1.20;;;20.00;1.00;;;;;;5078450;28;20052;-75
2021/07/31 06:10:05;;;;;;;4.28;1.38;;;20.00;1.00;;;;;;5078607;28;20182;-75
2021/07/31 06:12:59;;;;;;;6.40;1.65;;;19.60;1.00;;;;;;5077035;28;20106;-74
2021/07/31 06:15:47;;;;;;;4.05;1.40;;;19.80;1.00;;;;;;5077291;28;20048;-75
2021/07/31 06:18:37;;;;;;;3.65;1.27;;;20.20;1.00;;;;;;5066720;28;20032;-74
2021/07/31 06:21:25;;;;;;;6.57;1.27;;;20.50;1.00;;;;;;5075498;28;20048;-74
2021/07/31 06:24:13;;;;;;;5.57;1.80;;;19.90;1.00;;;;;;5075446;28;20166;-74
2021/07/31 06:27:02;;;;;;;5.82;1.73;;;20.30;1.00;;;;;;5074448;28;20762;-75
2021/07/31 06:29:51;;;;;;;5.50;1.42;;;21.50;1.00;;;;;;5078664;28;20403;-75
2021/07/31 06:32:40;;;;;;;4.93;1.70;;;22.20;1.00;;;;;;5080318;28;20077;-74
2021/07/31 06:35:28;;;;;;;3.35;1.55;;;22.90;1.00;;;;;;5074231;28;20421;-74
2021/07/31 06:38:16;;;;;;;5.30;1.25;;;23.10;1.00;;;;;;5071433;28;20112;-75
2021/07/31 06:41:06;;;;;;;7.88;1.38;;;23.50;1.00;;;;;;5079247;28;20052;-74
2021/07/31 06:43:56;;;;;;;5.28;1.27;;;23.00;1.00;;;;;;5080423;28;20388;-75
2021/07/31 06:46:45;;;;;;;5.18;1.58;;;21.40;1.00;;;;;;5080806;28;20052;-74
2021/07/31 06:49:34;;;;;;;4.75;1.45;;;20.70;1.00;;;;;;5079102;28;20119;-74
2021/07/31 06:52:22;;;;;;;3.97;1.30;;;20.40;1.00;;;;;;5060813;28;20305;-74
2021/07/31 06:55:11;;;;;;;5.55;1.35;;;20.40;1.00;;;;;;5082230;28;20055;-75
2021/07/31 06:58:00;;;;;;;2.70;1.20;;;20.60;1.00;;;;;;5082311;28;20052;-75
2021/07/31 07:00:48;;;;;;;3.05;1.48;;;21.00;1.00;;;;;;5078889;28;20375;-75
2021/07/31 07:03:38;;;;;;;3.25;1.30;;;20.50;1.00;;;;;;5076264;28;20048;-75
2021/07/31 07:06:27;;;;;;;3.58;1.50;;;20.60;1.00;;;;;;5061327;28;20072;-74
2021/07/31 07:09:20;;;;;;;6.18;1.50;;;20.30;1.00;;;;;;5083810;28;20052;-74
2021/07/31 07:12:09;;;;;;;4.65;1.65;;;20.20;1.00;;;;;;5078839;28;20441;-73
2021/07/31 07:14:57;;;;;;;7.85;1.90;;;19.90;1.00;;;;;;5065229;28;20056;-75
2021/07/31 07:17:45;;;;;;;3.85;1.63;;;20.60;1.00;;;;;;5063053;28;20162;-75
2021/07/31 07:20:35;;;;;;;5.07;1.60;;;20.70;1.00;;;;;;5080762;28;20046;-75
2021/07/31 07:23:25;;;;;;;6.18;1.60;;;19.80;1.00;;;;;;5081394;28;20093;-75
2021/07/31 07:26:13;;;;;;;3.58;1.55;;;19.70;1.00;;;;;;5080323;28;20512;-75
2021/07/31 07:29:02;;;;;;;8.80;1.77;;;20.30;1.00;;;;;;5078405;28;20127;-74
2021/07/31 07:31:50;;;;;;;6.72;1.48;;;20.30;1.00;;;;;;5079482;28;20437;-74
2021/07/31 07:34:40;;;;;;;4.88;1.27;;;21.10;1.00;;;;;;5081196;28;20054;-75
2021/07/31 07:37:30;;;;;;;5.88;1.50;;;20.60;1.00;;;;;;5080204;28;20162;-75
2021/07/31 07:40:19;;;;;;;3.30;1.52;;;20.20;1.00;;;;;;5069013;28;20051;-74
2021/07/31 07:43:07;;;;;;;4.72;1.65;;;20.70;1.00;;;;;;5071775;28;20056;-75
2021/07/31 07:45:55;;;;;;;3.95;1.63;;;21.90;1.00;;;;;;5082518;28;20068;-74
2021/07/31 07:48:46;;;;;;;2.80;1.40;;;22.50;1.00;;;;;;5083733;28;20503;-75
2021/07/31 07:51:34;;;;;;;6.90;1.65;;;22.70;1.00;;;;;;5076428;28;20386;-75
2021/07/31 07:54:24;;;;;;;4.95;1.63;;;22.50;1.00;;;;;;5073830;28;20423;-75
2021/07/31 07:57:12;;;;;;;4.47;1.40;;;20.60;1.00;;;;;;5074834;28;20058;-74
2021/07/31 08:00:01;;;;;;;5.10;1.52;;;21.70;1.00;;;;;;5078415;28;20044;-74
2021/07/31 08:02:50;;;;;;;7.72;1.67;;;21.10;1.00;;;;;;5078825;28;20040;-75
2021/07/31 08:05:39;;;;;;;5.72;1.40;;;21.30;1.00;;;;;;5078055;28;20040;-75
2021/07/31 08:08:28;;;;;;;4.90;1.40;;;21.20;1.00;;;;;;5076246;28;20051;-76
2021/07/31 08:11:18;;;;;;;3.17;1.45;;;20.70;1.00;;;;;;5081687;28;20039;-74
2021/07/31 08:14:06;;;;;;;3.30;1.60;;;20.00;1.00;;;;;;5080442;28;20062;-75
2021/07/31 08:16:54;;;;;;;3.88;1.30;;;20.20;1.00;;;;;;5078239;28;20048;-74
2021/07/31 08:19:43;;;;;;;6.68;1.70;;;20.30;1.00;;;;;;5065703;28;20044;-75
2021/07/31 08:22:31;;;;;;;6.00;1.40;;;20.30;1.00;;;;;;5082143;28;20621;-75
2021/07/31 08:25:20;;;;;;;4.32;1.30;;;20.40;1.00;;;;;;5069049;28;20125;-75
2021/07/31 08:28:09;;;;;;;2.80;1.40;;;20.50;1.00;;;;;;5078096;28;20043;-75
2021/07/31 08:30:58;;;;;;;7.28;1.45;;;21.00;1.00;;;;;;5075935;28;20062;-75
2021/07/31 08:33:46;;;;;;;3.88;1.60;;;21.40;1.00;;;;;;5077929;28;20063;-74
2021/07/31 08:36:34;;;;;;;2.22;1.20;;;22.20;1.00;;;;;;5080562;28;20742;-74
2021/07/31 08:39:23;;;;;;;6.75;1.63;;;22.10;1.00;;;;;;5080150;28;20156;-75
2021/07/31 08:42:12;;;;;;;6.95;1.73;;;21.40;1.00;;;;;;5076798;28;20487;-74
2021/07/31 08:45:03;;;;;;;5.07;1.30;;;21.20;1.00;;;;;;5075988;28;20410;-74
2021/07/31 08:47:53;;;;;;;7.22;1.60;;;21.20;1.00;;;;;;5080406;28;20115;-74
2021/07/31 08:50:42;;;;;;;3.08;1.65;;;21.10;1.00;;;;;;5083490;28;20044;-74
2021/07/31 08:53:32;;;;;;;3.00;1.40;;;21.30;1.00;;;;;;5062189;28;20052;-74
2021/07/31 08:56:20;;;;;;;5.07;1.45;;;22.10;1.00;;;;;;5076303;28;20489;-75
2021/07/31 08:59:09;;;;;;;4.72;1.40;;;22.00;1.00;;;;;;5079797;28;20531;-74
2021/07/31 09:01:59;;;;;;;3.45;1.52;;;22.40;1.00;;;;;;5079423;28;20062;-74
2021/07/31 09:04:49;;;;;;;2.80;1.27;;;22.50;1.00;;;;;;5077986;28;20040;-76
2021/07/31 09:07:38;;;;;;;3.22;1.10;;;22.80;1.00;;;;;;5062599;28;20571;-74
2021/07/31 09:10:28;;;;;;;3.55;1.40;;;22.30;1.00;;;;;;5077163;28;20043;-75
2021/07/31 09:13:18;;;;;;;4.72;1.33;;;21.60;1.00;;;;;;5055043;28;20640;-74
2021/07/31 09:16:10;;;;;;;3.35;1.27;;;21.60;1.00;;;;;;5056901;28;20072;-73
2021/07/31 09:19:05;;;;;;;3.08;1.40;;;21.90;1.00;;;;;;5062093;28;20438;-74
2021/07/31 09:22:03;;;;;;;2.22;1.52;;;21.30;1.00;;;;;;5054982;28;20040;-75
2021/07/31 09:25:08;;;;;;;6.18;1.58;;;20.80;1.00;;;;;;5055972;28;20450;-74
2021/07/31 09:28:21;;;;;;;3.13;1.40;;;21.60;1.00;;;;;;5056884;28;20040;-73
2021/07/31 09:31:14;;;;;;;3.65;1.42;;;21.90;1.00;;;;;;5057370;28;20134;-73
2021/07/31 09:34:04;;;;;;;4.28;1.67;;;21.90;1.00;;;;;;5059707;28;20048;-72
2021/07/31 09:37:05;;;;;;;4.10;1.20;;;21.10;1.00;;;;;;5035423;28;20131;-74
2021/07/31 09:39:57;;;;;;;4.78;1.30;;;22.30;1.00;;;;;;5057846;28;20041;-74
2021/07/31 09:42:46;;;;;;;4.28;1.40;;;23.00;1.00;;;;;;5042081;28;20044;-74
2021/07/31 09:45:35;;;;;;;4.22;1.42;;;23.10;1.00;;;;;;5052641;28;20410;-73
2021/07/31 09:48:23;;;;;;;3.83;1.25;;;22.80;1.00;;;;;;5052437;28;20461;-74
2021/07/31 09:51:13;;;;;;;3.25;1.17;;;22.10;1.00;;;;;;5048274;28;20047;-74
2021/07/31 09:54:03;;;;;;;3.17;1.40;;;22.70;1.00;;;;;;5053718;28;20041;-71
2021/07/31 09:56:53;;;;;;;3.60;1.58;;;22.30;1.00;;;;;;5049461;28;20037;-72
2021/07/31 09:59:46;;;;;;;2.75;1.55;;;22.50;1.00;;;;;;5054204;28;20049;-72
2021/07/31 10:02:35;;;;;;;2.97;1.35;;;23.00;1.00;;;;;;5041672;28;20049;-72
2021/07/31 10:05:23;;;;;;;2.85;1.27;;;22.50;1.00;;;;;;5058807;28;20049;-72
2021/07/31 10:08:15;;;;;;;2.47;1.30;;;21.90;1.00;;;;;;5043002;28;20708;-71
2021/07/31 10:11:04;;;;;;;2.72;1.40;;;22.20;1.00;;;;;;5056557;28;20079;-72
2021/07/31 10:13:53;;;;;;;2.83;1.60;;;22.00;1.00;;;;;;5049997;28;20068;-72
2021/07/31 10:16:47;;;;;;;3.80;1.33;;;22.50;1.00;;;;;;5046903;28;20057;-71
2021/07/31 10:19:40;;;;;;;4.07;1.27;;;23.20;1.00;;;;;;5060048;28;20045;-71
2021/07/31 10:22:42;;;;;;;6.13;1.40;;;22.60;1.00;;;;;;5061808;28;20041;-72
2021/07/31 10:25:33;;;;;;;2.95;1.17;;;22.90;1.00;;;;;;5047665;28;20052;-72
2021/07/31 10:28:28;;;;;;;2.28;1.25;;;23.10;1.00;;;;;;5056478;28;20045;-72
2021/07/31 10:31:34;;;;;;;2.80;0.95;;;24.00;1.00;;;;;;5058323;28;20053;-72
2021/07/31 10:34:47;;;;;;;2.47;1.30;;;22.80;1.00;;;;;;5057443;28;20440;-72
2021/07/31 10:37:44;;;;;;;4.32;1.30;;;22.60;1.00;;;;;;5038709;28;20059;-72
2021/07/31 10:40:56;;;;;;;2.88;1.20;;;23.20;1.00;;;;;;5061639;28;20044;-73
2021/07/31 10:44:09;;;;;;;3.05;1.40;;;23.10;1.00;;;;;;5050838;28;20495;-73
2021/07/31 10:47:30;;;;;;;3.25;1.63;;;22.80;1.00;;;;;;5059657;28;20552;-72
2021/07/31 10:50:40;;;;;;;4.65;1.55;;;23.10;1.00;;;;;;5057438;28;20068;-71
2021/07/31 10:53:51;;;;;;;3.83;1.75;;;23.60;1.00;;;;;;5050831;28;20429;-71
2021/07/31 10:56:56;;;;;;;3.95;1.27;;;22.80;1.00;;;;;;5060321;28;20068;-70
2021/07/31 11:00:22;;;;;;;2.05;1.40;;;22.70;1.00;;;;;;5059167;28;20106;-71
2021/07/31 11:03:40;;;;;;;2.97;1.55;;;23.50;1.00;;;;;;5059077;28;20535;-71
2021/07/31 11:07:07;;;;;;;4.95;1.60;;;23.10;1.00;;;;;;5049163;28;20053;-70
2021/07/31 11:10:31;;;;;;;5.15;1.33;;;22.90;1.00;;;;;;5051679;28;20131;-72
2021/07/31 11:13:54;;;;;;;4.80;2.15;;;23.80;1.00;;;;;;5062596;28;20071;-71
2021/07/31 11:16:43;;;;;;;2.92;1.48;;;23.30;1.00;;;;;;5064411;28;20713;-71
2021/07/31 11:19:33;;;;;;;4.63;1.40;;;23.30;1.00;;;;;;5065556;28;20415;-70
2021/07/31 11:22:21;;;;;;;5.50;1.58;;;23.00;1.00;;;;;;5052190;28;20986;-69
2021/07/31 11:25:10;;;;;;;2.78;1.30;;;23.00;1.00;;;;;;5058952;28;20067;-70
2021/07/31 11:28:01;;;;;;;4.85;1.40;;;23.20;1.00;;;;;;5064644;28;20052;-72
2021/07/31 11:30:51;;;;;;;5.43;1.75;;;23.70;1.00;;;;;;5061877;28;20041;-75
2021/07/31 11:33:42;;;;;;;3.28;1.25;;;23.80;1.00;;;;;;5062307;28;20115;-74
2021/07/31 11:36:30;;;;;;;4.53;1.60;;;23.30;1.00;;;;;;5056698;28;20053;-73
2021/07/31 11:39:18;;;;;;;3.45;1.40;;;23.30;1.00;;;;;;5061480;28;20640;-73
2021/07/31 11:42:08;;;;;;;6.35;1.30;;;23.60;1.00;;;;;;5069555;28;20445;-73
2021/07/31 11:45:03;;;;;;;3.85;1.38;;;23.00;1.00;;;;;;5062619;28;20040;-72
2021/07/31 11:47:57;;;;;;;3.10;1.13;;;23.20;1.00;;;;;;5060596;28;20499;-74
2021/07/31 11:51:01;;;;;;;4.90;1.50;;;23.80;1.00;;;;;;5059343;28;20090;-74
2021/07/31 11:53:50;;;;;;;4.55;1.75;;;24.20;1.00;;;;;;5066029;28;20041;-73
2021/07/31 11:56:40;;;;;;;3.63;1.50;;;23.60;1.00;;;;;;5063822;28;20428;-73
2021/07/31 11:59:30;;;;;;;3.38;1.58;;;24.30;1.00;;;;;;5061192;28;21236;-73
2021/07/31 12:02:33;;;;;;;3.50;1.40;;;24.30;1.00;;;;;;5056426;28;20052;-74
2021/07/31 12:08:15;;;;;;;3.80;1.90;;;24.50;1.00;;;;;;5170025;27;20114;-74
2021/07/31 12:11:04;;;;;;;3.85;1.30;;;24.50;1.00;;;;;;5156232;27;20126;-73
2021/07/31 12:13:52;;;;;;;5.65;1.80;;;23.60;1.00;;;;;;5151577;27;20071;-74
2021/07/31 12:16:41;;;;;;;2.05;1.13;;;23.50;1.00;;;;;;5137745;27;20509;-73
2021/07/31 12:19:41;;;;;;;4.45;1.42;;;23.60;1.00;;;;;;5137181;27;20054;-73
2021/07/31 12:22:31;;;;;;;2.63;1.15;;;23.90;1.00;;;;;;5137334;27;20387;-73
2021/07/31 12:25:22;;;;;;;2.35;1.35;;;24.60;1.00;;;;;;5122994;27;20126;-73
2021/07/31 12:28:13;;;;;;;2.05;1.30;;;25.20;1.00;;;;;;5140702;27;20064;-73
2021/07/31 12:31:02;;;;;;;3.45;1.15;;;24.40;1.00;;;;;;5134392;27;20039;-73
2021/07/31 12:33:50;;;;;;;4.03;1.70;;;24.70;1.00;;;;;;5143152;27;20395;-73
2021/07/31 12:36:53;;;;;;;2.28;1.30;;;24.40;1.00;;;;;;5138210;27;20031;-73
2021/07/31 12:39:41;;;;;;;2.22;1.13;;;24.70;1.00;;;;;;5146664;27;20041;-73
2021/07/31 12:42:31;;;;;;;4.75;1.45;;;24.10;1.00;;;;;;5135894;27;20055;-73
2021/07/31 12:45:20;;;;;;;5.60;1.42;;;23.40;1.00;;;;;;5132792;27;20050;-73
2021/07/31 12:48:08;;;;;;;5.35;1.52;;;23.80;1.00;;;;;;5143577;27;20043;-73
2021/07/31 12:50:57;;;;;;;4.43;1.63;;;24.00;1.00;;;;;;5140722;27;20066;-73
2021/07/31 12:53:46;;;;;;;6.55;1.23;;;24.20;1.00;;;;;;5140573;27;20039;-72
2021/07/31 12:56:35;;;;;;;5.18;1.30;;;24.40;1.00;;;;;;5139978;27;20042;-74
2021/07/31 12:59:25;;;;;;;3.80;1.33;;;25.10;1.00;;;;;;5141460;27;20149;-73
2021/07/31 13:02:30;;;;;;;4.78;1.40;;;23.60;1.00;;;;;;5141757;27;20042;-72
2021/07/31 13:05:19;;;;;;;3.92;1.30;;;23.60;1.00;;;;;;5142599;27;20047;-73
2021/07/31 13:08:07;;;;;;;7.20;1.98;;;24.00;1.00;;;;;;5134102;27;20125;-72
2021/07/31 13:10:55;;;;;;;2.80;1.52;;;24.20;1.00;;;;;;5138058;27;20070;-74
2021/07/31 13:13:44;;;;;;;2.75;1.13;;;23.50;1.00;;;;;;5140307;27;20042;-73
2021/07/31 13:16:34;;;;;;;4.13;1.50;;;23.80;1.00;;;;;;5140451;27;20043;-73
2021/07/31 13:19:22;;;;;;;7.28;1.50;;;23.90;1.00;;;;;;5097850;27;20054;-74
2021/07/31 13:22:11;;;;;;;2.88;1.25;;;24.00;1.00;;;;;;5121948;27;20383;-72
2021/07/31 13:24:59;;;;;;;2.67;1.10;;;23.90;1.00;;;;;;5116216;27;20055;-74
2021/07/31 13:27:47;;;;;;;3.60;1.52;;;24.60;1.00;;;;;;5125764;27;20659;-73
2021/07/31 13:30:37;;;;;;;8.13;1.50;;;23.80;1.00;;;;;;5125677;27;20131;-71
2021/07/31 13:33:27;;;;;;;4.57;1.40;;;24.20;1.00;;;;;;5126504;27;20043;-72
2021/07/31 13:36:15;;;;;;;5.68;1.70;;;23.90;1.00;;;;;;5111314;27;20047;-73
2021/07/31 13:39:04;;;;;;;3.40;1.67;;;23.80;1.00;;;;;;5122092;27;20130;-71
2021/07/31 13:41:53;;;;;;;3.65;1.77;;;23.20;1.00;;;;;;5129017;27;20055;-73
2021/07/31 13:44:48;;;;;;;4.65;2.08;;;24.00;1.00;;;;;;5125074;27;20086;-73
2021/07/31 13:47:38;;;;;;;3.75;1.75;;;24.20;1.00;;;;;;5125487;27;20049;-72
2021/07/31 13:50:28;;;;;;;3.70;1.30;;;23.80;1.00;;;;;;5121336;27;20049;-72
2021/07/31 13:53:16;;;;;;;4.20;1.48;;;24.20;1.00;;;;;;5123498;27;20111;-72
2021/07/31 13:56:05;;;;;;;3.17;1.38;;;23.80;1.00;;;;;;5118777;27;20070;-72
2021/07/31 13:58:53;;;;;;;6.60;1.65;;;24.10;1.00;;;;;;5126576;27;20039;-72
2021/07/31 14:01:42;;;;;;;4.25;1.73;;;24.20;1.00;;;;;;5122640;27;20490;-72
2021/07/31 14:04:30;;;;;;;5.28;1.40;;;24.50;1.00;;;;;;5123267;27;20090;-72
2021/07/31 14:07:20;;;;;;;7.63;1.70;;;23.80;1.00;;;;;;5121967;27;20035;-72
2021/07/31 14:10:09;;;;;;;1.45;1.20;;;24.50;1.00;;;;;;5124358;27;20051;-73
2021/07/31 14:12:58;;;;;;;4.93;1.83;;;23.70;1.00;;;;;;5111029;27;20035;-71
2021/07/31 14:15:46;;;;;;;3.90;1.50;;;23.90;1.00;;;;;;5093154;27;20413;-71
2021/07/31 14:18:35;;;;;;;3.45;1.50;;;24.20;1.00;;;;;;5120115;27;20039;-71
2021/07/31 14:21:23;;;;;;;4.05;1.50;;;24.30;1.00;;;;;;5117253;27;20126;-72
2021/07/31 14:24:13;;;;;;;7.00;1.92;;;24.10;1.00;;;;;;5124716;27;20470;-71
2021/07/31 14:27:01;;;;;;;4.38;2.17;;;24.40;1.00;;;;;;5118079;27;20050;-72
2021/07/31 14:29:50;;;;;;;4.05;1.30;;;24.00;1.00;;;;;;5125271;27;20047;-72
2021/07/31 14:32:38;;;;;;;4.43;1.58;;;24.30;1.00;;;;;;5123236;27;20070;-72
2021/07/31 14:35:28;;;;;;;4.65;2.03;;;24.60;1.00;;;;;;5116969;27;20036;-72
2021/07/31 14:38:17;;;;;;;1.88;1.30;;;24.00;1.00;;;;;;5119503;27;20055;-73
2021/07/31 14:41:07;;;;;;;3.78;1.75;;;23.80;1.00;;;;;;5123628;27;20188;-74
2021/07/31 14:43:56;;;;;;;4.03;1.77;;;24.40;1.00;;;;;;5128133;27;20039;-72
2021/07/31 14:46:44;;;;;;;5.75;1.73;;;24.20;1.00;;;;;;5120203;27;20422;-72
2021/07/31 14:49:33;;;;;;;4.88;1.45;;;24.80;1.00;;;;;;5120878;27;20520;-72
2021/07/31 14:52:21;;;;;;;3.35;1.85;;;24.40;1.00;;;;;;5122455;27;20118;-71
2021/07/31 14:55:10;;;;;;;3.30;1.60;;;24.20;1.00;;;;;;5122176;27;20131;-73
2021/07/31 14:57:59;;;;;;;3.95;1.63;;;24.10;1.00;;;;;;5125141;27;20043;-73
2021/07/31 15:00:48;;;;;;;3.38;1.50;;;24.00;1.00;;;;;;5126054;27;20053;-73
2021/07/31 15:03:36;;;;;;;5.03;1.75;;;24.40;1.00;;;;;;5115174;27;20051;-72
2021/07/31 15:06:25;;;;;;;3.50;1.45;;;24.00;1.00;;;;;;5113573;27;20517;-72
2021/07/31 15:09:13;;;;;;;3.63;1.60;;;23.90;1.00;;;;;;5115810;27;20502;-72